RYR6DB LERS-EGCC
Flight info
| Callsign | RYR6DB |
|---|---|
| Flight time | 1h 56m |
| Altitude | 36000 |
| Route | NATPI DCT EVNAM DCT TUPAR UN861 ANG DCT AKIKI UN867 AVANT UM184 HEMEL T420 ELVOS |
| Aircraft | B738/M-SDE2E3FGHIRWXY/LB1 |
Departure
| Time | 2026-05-04 09:44 |
|---|---|
| Airport | Reus Airport (LERS) |
Arrival
| Time | 2026-05-04 11:40 |
|---|---|
| Airport | Manchester Airport (EGCC) |
| Time | Latitude | Longitude | Altitude | Speed | Heading |
|---|---|---|---|---|---|
| 2026-05-04 08:54 | 41.14760 | 1.15869 | 239 ft | 0 kts | 339° |
| 2026-05-04 09:37 | 41.14686 | 1.15923 | 239 ft | 0 kts | 317° |
| 2026-05-04 09:39 | 41.14686 | 1.15920 | 239 ft | 1 kts | 300° |
| 2026-05-04 09:40 | 41.14682 | 1.15906 | 239 ft | 3 kts | 246° |
| 2026-05-04 09:40 | 41.14663 | 1.15847 | 239 ft | 21 kts | 248° |
| 2026-05-04 09:40 | 41.14595 | 1.15619 | 239 ft | 11 kts | 249° |
| 2026-05-04 09:40 | 41.14554 | 1.15564 | 239 ft | 4 kts | 187° |
| 2026-05-04 09:41 | 41.14515 | 1.15580 | 239 ft | 2 kts | 159° |
| 2026-05-04 09:42 | 41.14445 | 1.15709 | 239 ft | 0 kts | 69° |
| 2026-05-04 09:43 | 41.14445 | 1.15711 | 239 ft | 1 kts | 69° |
| 2026-05-04 09:43 | 41.14532 | 1.16008 | 239 ft | 75 kts | 69° |
| 2026-05-04 09:43 | 41.14814 | 1.16980 | 240 ft | 147 kts | 69° |
| 2026-05-04 09:44 | 41.15221 | 1.18384 | 631 ft | 173 kts | 70° |
| 2026-05-04 09:44 | 41.15651 | 1.19912 | 1442 ft | 179 kts | 70° |
| 2026-05-04 09:44 | 41.16059 | 1.21423 | 2400 ft | 172 kts | 71° |
| 2026-05-04 09:46 | 41.20248 | 1.35051 | 5384 ft | 284 kts | 69° |
| 2026-05-04 09:46 | 41.21191 | 1.37348 | 6274 ft | 286 kts | 47° |
| 2026-05-04 09:46 | 41.22811 | 1.38863 | 7047 ft | 289 kts | 19° |
| 2026-05-04 09:47 | 41.24754 | 1.39237 | 7792 ft | 289 kts | 351° |
| 2026-05-04 09:47 | 41.26639 | 1.38428 | 8567 ft | 285 kts | 324° |
| 2026-05-04 09:49 | 41.41782 | 1.34827 | 12309 ft | 371 kts | 355° |
| 2026-05-04 09:49 | 41.44260 | 1.34698 | 13000 ft | 374 kts | 355° |
| 2026-05-04 09:49 | 41.46835 | 1.34529 | 13693 ft | 378 kts | 354° |
| 2026-05-04 09:51 | 41.63024 | 1.33186 | 17338 ft | 401 kts | 352° |
| 2026-05-04 09:51 | 41.65780 | 1.32947 | 17921 ft | 405 kts | 352° |
| 2026-05-04 09:51 | 41.68572 | 1.32705 | 18460 ft | 409 kts | 352° |
| 2026-05-04 09:51 | 41.71420 | 1.32459 | 18956 ft | 412 kts | 352° |
| 2026-05-04 09:52 | 41.74298 | 1.32210 | 19446 ft | 416 kts | 352° |
| 2026-05-04 09:52 | 41.77179 | 1.31960 | 19933 ft | 420 kts | 352° |
| 2026-05-04 09:52 | 41.80131 | 1.31705 | 20424 ft | 424 kts | 352° |
| 2026-05-04 09:52 | 41.83086 | 1.31448 | 20888 ft | 428 kts | 352° |
| 2026-05-04 09:53 | 41.86080 | 1.31188 | 21376 ft | 431 kts | 351° |
| 2026-05-04 09:53 | 41.89040 | 1.30932 | 21856 ft | 434 kts | 351° |
| 2026-05-04 09:53 | 41.92071 | 1.30668 | 22327 ft | 438 kts | 351° |
| 2026-05-04 09:53 | 41.95120 | 1.30403 | 22784 ft | 441 kts | 351° |
| 2026-05-04 09:54 | 41.98201 | 1.30135 | 23238 ft | 445 kts | 351° |
| 2026-05-04 09:54 | 42.01154 | 1.29877 | 23649 ft | 448 kts | 350° |
| 2026-05-04 09:54 | 42.04265 | 1.29606 | 24032 ft | 451 kts | 350° |
| 2026-05-04 09:54 | 42.07408 | 1.29332 | 24418 ft | 453 kts | 350° |
| 2026-05-04 09:55 | 42.10556 | 1.29059 | 24770 ft | 453 kts | 350° |
| 2026-05-04 09:55 | 42.13704 | 1.28784 | 25175 ft | 454 kts | 350° |
| 2026-05-04 09:55 | 42.16809 | 1.28513 | 25466 ft | 457 kts | 350° |
| 2026-05-04 09:55 | 42.20009 | 1.28230 | 25808 ft | 460 kts | 350° |
| 2026-05-04 09:56 | 42.23190 | 1.27950 | 26153 ft | 463 kts | 350° |
| 2026-05-04 09:56 | 42.26435 | 1.27665 | 26510 ft | 465 kts | 350° |
| 2026-05-04 09:56 | 42.29666 | 1.27381 | 26834 ft | 467 kts | 350° |
| 2026-05-04 09:56 | 42.32837 | 1.27102 | 27131 ft | 469 kts | 350° |
| 2026-05-04 09:57 | 42.36183 | 1.26808 | 27544 ft | 471 kts | 350° |
| 2026-05-04 09:57 | 42.39459 | 1.26520 | 27890 ft | 473 kts | 351° |
| 2026-05-04 09:57 | 42.42711 | 1.26233 | 28170 ft | 475 kts | 350° |
| 2026-05-04 09:57 | 42.46016 | 1.25938 | 28402 ft | 477 kts | 351° |
| 2026-05-04 09:58 | 42.49337 | 1.25641 | 28583 ft | 479 kts | 350° |
| 2026-05-04 09:58 | 42.52664 | 1.25347 | 28855 ft | 481 kts | 351° |
| 2026-05-04 09:58 | 42.55989 | 1.25055 | 29140 ft | 483 kts | 351° |
| 2026-05-04 10:00 | 42.79646 | 1.22712 | 31412 ft | 481 kts | 348° |
| 2026-05-04 10:00 | 42.82971 | 1.22229 | 31619 ft | 482 kts | 348° |
| 2026-05-04 10:02 | 43.06351 | 1.18933 | 33532 ft | 483 kts | 348° |
| 2026-05-04 10:04 | 43.29662 | 1.15703 | 35137 ft | 482 kts | 348° |
| 2026-05-04 10:04 | 43.32992 | 1.15239 | 35339 ft | 482 kts | 348° |
| 2026-05-04 10:04 | 43.36230 | 1.14787 | 35547 ft | 482 kts | 348° |
| 2026-05-04 10:04 | 43.39431 | 1.14341 | 35751 ft | 481 kts | 348° |
| 2026-05-04 10:05 | 43.42762 | 1.13875 | 35940 ft | 481 kts | 349° |
| 2026-05-04 10:05 | 43.49455 | 1.12936 | 35971 ft | 484 kts | 349° |
| 2026-05-04 10:06 | 43.55874 | 1.12038 | 35963 ft | 480 kts | 349° |
| 2026-05-04 10:06 | 43.62339 | 1.10368 | 35960 ft | 467 kts | 334° |
| 2026-05-04 10:08 | 43.82878 | 0.97946 | 35971 ft | 463 kts | 330° |
| 2026-05-04 10:08 | 43.88808 | 0.94373 | 35970 ft | 466 kts | 330° |
| 2026-05-04 10:09 | 43.94766 | 0.90783 | 35975 ft | 468 kts | 330° |
| 2026-05-04 10:09 | 44.00753 | 0.87168 | 35974 ft | 470 kts | 331° |
| 2026-05-04 10:10 | 44.06724 | 0.83553 | 35971 ft | 472 kts | 331° |
| 2026-05-04 10:10 | 44.12750 | 0.79897 | 35973 ft | 473 kts | 331° |
| 2026-05-04 10:11 | 44.18788 | 0.76223 | 35969 ft | 473 kts | 331° |
| 2026-05-04 10:11 | 44.24826 | 0.72542 | 35968 ft | 473 kts | 331° |
| 2026-05-04 10:12 | 44.30836 | 0.68871 | 35965 ft | 472 kts | 331° |
| 2026-05-04 10:12 | 44.36807 | 0.65214 | 35967 ft | 471 kts | 331° |
| 2026-05-04 10:13 | 44.42790 | 0.61542 | 35967 ft | 469 kts | 331° |
| 2026-05-04 10:13 | 44.48755 | 0.57872 | 35969 ft | 468 kts | 331° |
| 2026-05-04 10:14 | 44.54718 | 0.54195 | 35969 ft | 467 kts | 331° |
| 2026-05-04 10:16 | 44.78527 | 0.39430 | 35972 ft | 469 kts | 331° |
| 2026-05-04 10:16 | 44.84466 | 0.35727 | 35968 ft | 470 kts | 331° |
| 2026-05-04 10:17 | 44.90436 | 0.31995 | 35967 ft | 470 kts | 331° |
| 2026-05-04 10:19 | 45.14426 | 0.16915 | 35957 ft | 473 kts | 331° |
| 2026-05-04 10:19 | 45.20390 | 0.13145 | 35960 ft | 473 kts | 331° |
| 2026-05-04 10:20 | 45.26397 | 0.09338 | 35958 ft | 473 kts | 331° |
| 2026-05-04 10:20 | 45.32406 | 0.05522 | 35960 ft | 473 kts | 331° |
| 2026-05-04 10:21 | 45.38422 | 0.01691 | 35962 ft | 474 kts | 331° |
| 2026-05-04 10:21 | 45.44399 | -0.02123 | 35962 ft | 474 kts | 331° |
| 2026-05-04 10:22 | 45.53416 | -0.07894 | 35972 ft | 474 kts | 331° |
| 2026-05-04 10:23 | 45.59449 | -0.11767 | 35954 ft | 474 kts | 331° |
| 2026-05-04 10:25 | 45.83380 | -0.27218 | 35965 ft | 471 kts | 331° |
| 2026-05-04 10:25 | 45.89349 | -0.31095 | 35963 ft | 470 kts | 331° |
| 2026-05-04 10:26 | 45.95266 | -0.34948 | 35964 ft | 470 kts | 331° |
| 2026-05-04 10:26 | 46.01202 | -0.38823 | 35972 ft | 472 kts | 331° |
| 2026-05-04 10:27 | 46.06916 | -0.42561 | 35974 ft | 473 kts | 331° |
| 2026-05-04 10:27 | 46.12902 | -0.46485 | 35969 ft | 471 kts | 331° |
| 2026-05-04 10:28 | 46.18818 | -0.50372 | 35965 ft | 470 kts | 331° |
| 2026-05-04 10:28 | 46.24761 | -0.54288 | 35963 ft | 469 kts | 331° |
| 2026-05-04 10:29 | 46.30689 | -0.58204 | 35972 ft | 468 kts | 331° |
| 2026-05-04 10:29 | 46.36612 | -0.62125 | 35978 ft | 468 kts | 331° |
| 2026-05-04 10:30 | 46.42612 | -0.65855 | 35958 ft | 473 kts | 339° |
| 2026-05-04 10:30 | 46.49079 | -0.67575 | 35975 ft | 479 kts | 351° |
| 2026-05-04 10:31 | 46.55712 | -0.68570 | 35990 ft | 481 kts | 351° |
| 2026-05-04 10:32 | 46.79064 | -0.72378 | 35965 ft | 484 kts | 350° |
| 2026-05-04 10:33 | 46.85750 | -0.73515 | 35971 ft | 483 kts | 350° |
| 2026-05-04 10:33 | 46.92431 | -0.74652 | 35965 ft | 483 kts | 350° |
| 2026-05-04 10:34 | 46.99051 | -0.75779 | 35972 ft | 482 kts | 350° |
| 2026-05-04 10:34 | 47.05717 | -0.76917 | 35971 ft | 482 kts | 350° |
| 2026-05-04 10:35 | 47.12372 | -0.78057 | 35966 ft | 481 kts | 350° |
| 2026-05-04 10:35 | 47.19017 | -0.79198 | 35976 ft | 481 kts | 350° |
| 2026-05-04 10:36 | 47.25609 | -0.80332 | 35977 ft | 480 kts | 350° |
| 2026-05-04 10:36 | 47.32241 | -0.81477 | 35971 ft | 480 kts | 350° |
| 2026-05-04 10:37 | 47.38867 | -0.82623 | 35970 ft | 479 kts | 350° |
| 2026-05-04 10:37 | 47.45489 | -0.83772 | 35968 ft | 479 kts | 350° |
| 2026-05-04 10:39 | 47.68462 | -0.89043 | 35970 ft | 478 kts | 346° |
| 2026-05-04 10:40 | 47.75003 | -0.90839 | 35969 ft | 478 kts | 346° |
| 2026-05-04 10:40 | 47.81550 | -0.92597 | 35970 ft | 478 kts | 347° |
| 2026-05-04 10:41 | 47.88060 | -0.94334 | 35969 ft | 478 kts | 347° |
| 2026-05-04 10:41 | 47.94610 | -0.96086 | 35969 ft | 478 kts | 347° |
| 2026-05-04 10:42 | 48.01160 | -0.97844 | 35968 ft | 478 kts | 347° |
| 2026-05-04 10:42 | 48.07703 | -0.99606 | 35966 ft | 478 kts | 347° |
| 2026-05-04 10:43 | 48.14202 | -1.01360 | 35965 ft | 477 kts | 347° |
| 2026-05-04 10:45 | 48.40282 | -1.08448 | 35965 ft | 477 kts | 347° |
| 2026-05-04 10:45 | 48.46800 | -1.10230 | 35973 ft | 476 kts | 347° |
| 2026-05-04 10:46 | 48.53322 | -1.12019 | 35972 ft | 476 kts | 347° |
| 2026-05-04 10:46 | 48.59835 | -1.13810 | 35976 ft | 476 kts | 347° |
| 2026-05-04 10:47 | 48.66355 | -1.15607 | 35977 ft | 476 kts | 347° |
| 2026-05-04 10:47 | 48.72820 | -1.17394 | 35973 ft | 476 kts | 347° |
| 2026-05-04 10:49 | 48.98826 | -1.24629 | 35985 ft | 476 kts | 347° |
| 2026-05-04 10:50 | 49.05335 | -1.26452 | 35987 ft | 476 kts | 347° |
| 2026-05-04 10:52 | 49.31361 | -1.33790 | 35999 ft | 477 kts | 347° |
| 2026-05-04 10:52 | 49.37879 | -1.35640 | 36008 ft | 477 kts | 347° |
| 2026-05-04 10:54 | 49.60741 | -1.41687 | 36014 ft | 481 kts | 358° |
| 2026-05-04 10:54 | 49.64075 | -1.41498 | 36033 ft | 482 kts | 1° |
| 2026-05-04 10:56 | 49.90789 | -1.38838 | 36013 ft | 481 kts | 1° |
| 2026-05-04 10:57 | 49.97476 | -1.38231 | 36009 ft | 481 kts | 1° |
| 2026-05-04 10:57 | 50.04135 | -1.37199 | 36011 ft | 482 kts | 7° |
| 2026-05-04 10:58 | 50.10754 | -1.35482 | 36014 ft | 482 kts | 8° |
| 2026-05-04 10:58 | 50.17370 | -1.33731 | 36011 ft | 482 kts | 8° |
| 2026-05-04 10:59 | 50.23951 | -1.32072 | 36012 ft | 482 kts | 8° |
| 2026-05-04 10:59 | 50.30576 | -1.30430 | 36014 ft | 483 kts | 8° |
| 2026-05-04 11:00 | 50.37214 | -1.28779 | 36017 ft | 483 kts | 8° |
| 2026-05-04 11:01 | 50.59106 | -1.16952 | 36000 ft | 484 kts | 34° |
| 2026-05-04 11:02 | 50.61926 | -1.14036 | 35997 ft | 484 kts | 33° |
| 2026-05-04 11:05 | 50.89079 | -0.89884 | 36007 ft | 486 kts | 17° |
| 2026-05-04 11:06 | 50.93043 | -0.87933 | 36001 ft | 486 kts | 17° |
| 2026-05-04 11:06 | 50.96565 | -0.86197 | 36001 ft | 486 kts | 17° |
| 2026-05-04 11:10 | 51.32822 | -0.67344 | 36021 ft | 478 kts | 18° |
| 2026-05-04 11:12 | 51.57547 | -0.54248 | 36022 ft | 482 kts | 18° |
| 2026-05-04 11:12 | 51.63876 | -0.50872 | 36030 ft | 483 kts | 18° |
| 2026-05-04 11:13 | 51.67484 | -0.48942 | 36019 ft | 482 kts | 18° |
| 2026-05-04 11:13 | 51.73826 | -0.45543 | 36070 ft | 479 kts | 18° |
| 2026-05-04 11:14 | 51.80281 | -0.43686 | 35797 ft | 469 kts | 352° |
| 2026-05-04 11:14 | 51.83449 | -0.44761 | 35184 ft | 464 kts | 336° |
| 2026-05-04 11:16 | 52.02332 | -0.63135 | 31516 ft | 444 kts | 326° |
| 2026-05-04 11:16 | 52.04945 | -0.65686 | 31083 ft | 440 kts | 326° |
| 2026-05-04 11:16 | 52.07578 | -0.68265 | 30685 ft | 436 kts | 326° |
| 2026-05-04 11:17 | 52.10132 | -0.70771 | 30286 ft | 433 kts | 326° |
| 2026-05-04 11:17 | 52.12703 | -0.73297 | 29836 ft | 430 kts | 326° |
| 2026-05-04 11:19 | 52.29842 | -0.90293 | 26948 ft | 401 kts | 326° |
| 2026-05-04 11:19 | 52.32241 | -0.92671 | 26547 ft | 398 kts | 326° |
| 2026-05-04 11:19 | 52.34564 | -0.94979 | 26157 ft | 395 kts | 326° |
| 2026-05-04 11:19 | 52.36899 | -0.97302 | 25768 ft | 392 kts | 326° |
| 2026-05-04 11:20 | 52.39219 | -0.99614 | 25389 ft | 389 kts | 326° |
| 2026-05-04 11:20 | 52.41524 | -1.01916 | 24997 ft | 386 kts | 326° |
| 2026-05-04 11:20 | 52.43809 | -1.04198 | 24613 ft | 384 kts | 326° |
| 2026-05-04 11:20 | 52.46084 | -1.06474 | 24221 ft | 382 kts | 326° |
| 2026-05-04 11:22 | 52.61533 | -1.22096 | 21454 ft | 364 kts | 326° |
| 2026-05-04 11:22 | 52.63680 | -1.24273 | 21078 ft | 361 kts | 326° |
| 2026-05-04 11:23 | 52.65812 | -1.26435 | 20710 ft | 359 kts | 326° |
| 2026-05-04 11:23 | 52.67929 | -1.28587 | 20346 ft | 356 kts | 326° |
| 2026-05-04 11:24 | 52.80544 | -1.41432 | 17918 ft | 356 kts | 327° |
| 2026-05-04 11:25 | 52.82570 | -1.43501 | 17480 ft | 355 kts | 327° |
| 2026-05-04 11:25 | 52.84665 | -1.45645 | 17052 ft | 353 kts | 327° |
| 2026-05-04 11:25 | 52.86747 | -1.47777 | 16630 ft | 351 kts | 327° |
| 2026-05-04 11:26 | 52.90788 | -1.51923 | 15950 ft | 344 kts | 327° |
| 2026-05-04 11:27 | 53.03070 | -1.69078 | 13502 ft | 319 kts | 289° |
| 2026-05-04 11:28 | 53.03840 | -1.72463 | 13195 ft | 316 kts | 289° |
| 2026-05-04 11:28 | 53.04596 | -1.75882 | 12800 ft | 315 kts | 289° |
| 2026-05-04 11:28 | 53.05348 | -1.79291 | 12451 ft | 313 kts | 289° |
| 2026-05-04 11:28 | 53.06099 | -1.82680 | 12113 ft | 311 kts | 289° |
| 2026-05-04 11:29 | 53.06670 | -1.85243 | 11878 ft | 309 kts | 289° |
| 2026-05-04 11:29 | 53.07366 | -1.88350 | 11778 ft | 300 kts | 289° |
| 2026-05-04 11:29 | 53.08083 | -1.91547 | 11708 ft | 290 kts | 289° |
| 2026-05-04 11:29 | 53.08774 | -1.94625 | 11606 ft | 281 kts | 289° |
| 2026-05-04 11:31 | 53.13315 | -2.14913 | 9167 ft | 272 kts | 289° |
| 2026-05-04 11:33 | 53.17760 | -2.34950 | 6242 ft | 262 kts | 290° |
| 2026-05-04 11:33 | 53.18383 | -2.37772 | 5730 ft | 263 kts | 291° |
| 2026-05-04 11:33 | 53.19015 | -2.40636 | 5219 ft | 264 kts | 291° |
| 2026-05-04 11:34 | 53.19649 | -2.43515 | 4715 ft | 264 kts | 291° |
| 2026-05-04 11:34 | 53.20282 | -2.46392 | 4185 ft | 265 kts | 291° |
| 2026-05-04 11:34 | 53.20923 | -2.49267 | 3674 ft | 264 kts | 295° |
| 2026-05-04 11:34 | 53.22049 | -2.51602 | 3208 ft | 258 kts | 329° |
| 2026-05-04 11:35 | 53.23691 | -2.52290 | 3092 ft | 237 kts | 6° |
| 2026-05-04 11:35 | 53.25093 | -2.51223 | 2994 ft | 216 kts | 45° |
| 2026-05-04 11:35 | 53.25710 | -2.49057 | 2746 ft | 205 kts | 78° |
| 2026-05-04 11:35 | 53.26032 | -2.46805 | 2482 ft | 192 kts | 69° |
| 2026-05-04 11:36 | 53.26618 | -2.44945 | 2268 ft | 173 kts | 54° |
| 2026-05-04 11:36 | 53.27261 | -2.43418 | 2096 ft | 155 kts | 51° |
| 2026-05-04 11:36 | 53.27889 | -2.42064 | 1886 ft | 142 kts | 50° |
| 2026-05-04 11:36 | 53.28505 | -2.40779 | 1693 ft | 141 kts | 50° |
| 2026-05-04 11:37 | 53.29119 | -2.39504 | 1498 ft | 140 kts | 50° |
| 2026-05-04 11:37 | 53.29733 | -2.38232 | 1299 ft | 141 kts | 50° |
| 2026-05-04 11:37 | 53.30349 | -2.36960 | 1109 ft | 141 kts | 50° |
| 2026-05-04 11:37 | 53.30964 | -2.35701 | 863 ft | 143 kts | 50° |
| 2026-05-04 11:38 | 53.31552 | -2.34474 | 672 ft | 147 kts | 51° |
| 2026-05-04 11:38 | 53.32204 | -2.33108 | 489 ft | 144 kts | 50° |
| 2026-05-04 11:38 | 53.32823 | -2.31829 | 332 ft | 141 kts | 50° |
| 2026-05-04 11:38 | 53.33435 | -2.30573 | 216 ft | 133 kts | 50° |
| 2026-05-04 11:39 | 53.33937 | -2.29539 | 211 ft | 104 kts | 51° |
| 2026-05-04 11:39 | 53.34274 | -2.28841 | 223 ft | 61 kts | 51° |
| 2026-05-04 11:40 | 53.34863 | -2.28086 | 232 ft | 0 kts | 51° |
| 2026-05-04 11:41 | 53.34877 | -2.28059 | 232 ft | 9 kts | 51° |
| 2026-05-04 11:41 | 53.34927 | -2.27973 | 235 ft | 12 kts | 21° |
| 2026-05-04 11:41 | 53.35003 | -2.28029 | 232 ft | 15 kts | 321° |
| 2026-05-04 11:42 | 53.35088 | -2.28144 | 229 ft | 16 kts | 322° |
| 2026-05-04 11:42 | 53.35188 | -2.28202 | 233 ft | 16 kts | 6° |
| 2026-05-04 11:42 | 53.35230 | -2.28195 | 235 ft | 0 kts | 6° |
| 2026-05-04 11:44 | 53.35277 | -2.28185 | 237 ft | 13 kts | 12° |
| 2026-05-04 11:45 | 53.35356 | -2.28083 | 240 ft | 18 kts | 44° |
| 2026-05-04 11:45 | 53.35446 | -2.27938 | 244 ft | 18 kts | 44° |
| 2026-05-04 11:45 | 53.35524 | -2.27812 | 248 ft | 17 kts | 44° |
| 2026-05-04 11:45 | 53.35607 | -2.27677 | 252 ft | 16 kts | 44° |
| 2026-05-04 11:46 | 53.35683 | -2.27538 | 254 ft | 17 kts | 51° |
| 2026-05-04 11:46 | 53.35754 | -2.27391 | 254 ft | 16 kts | 51° |
| 2026-05-04 11:46 | 53.35821 | -2.27259 | 254 ft | 13 kts | 39° |
| 2026-05-04 11:46 | 53.35873 | -2.27193 | 254 ft | 6 kts | 63° |
| 2026-05-04 11:47 | 53.35895 | -2.27132 | 254 ft | 5 kts | 54° |
| 2026-05-04 11:47 | 53.35903 | -2.27114 | 254 ft | 0 kts | 53° |